sensor_id;sensor_type;location;lat;lon;timestamp;P1;durP1;ratioP1;P2;durP2;ratioP2
38208;SDS011;24016;52.102;11.584;2023-05-07T00:00:41;15.13;;;11.95;;
38208;SDS011;24016;52.102;11.584;2023-05-07T00:03:07;16.70;;;12.57;;
38208;SDS011;24016;52.102;11.584;2023-05-07T00:05:32;15.40;;;12.68;;
38208;SDS011;24016;52.102;11.584;2023-05-07T00:07:58;22.48;;;14.32;;
38208;SDS011;24016;52.102;11.584;2023-05-07T00:10:24;17.00;;;13.90;;
38208;SDS011;24016;52.102;11.584;2023-05-07T00:12:50;19.20;;;14.27;;
38208;SDS011;24016;52.102;11.584;2023-05-07T00:15:15;17.52;;;14.30;;
38208;SDS011;24016;52.102;11.584;2023-05-07T00:17:41;17.42;;;14.23;;
38208;SDS011;24016;52.102;11.584;2023-05-07T00:20:07;15.60;;;13.18;;
38208;SDS011;24016;52.102;11.584;2023-05-07T00:22:32;20.40;;;14.30;;
38208;SDS011;24016;52.102;11.584;2023-05-07T00:24:58;15.77;;;13.32;;
38208;SDS011;24016;52.102;11.584;2023-05-07T00:27:24;14.38;;;12.88;;
38208;SDS011;24016;52.102;11.584;2023-05-07T00:29:50;14.80;;;13.13;;
38208;SDS011;24016;52.102;11.584;2023-05-07T00:32:15;13.75;;;12.07;;
38208;SDS011;24016;52.102;11.584;2023-05-07T00:34:41;15.98;;;12.00;;
38208;SDS011;24016;52.102;11.584;2023-05-07T00:37:07;14.00;;;12.23;;
38208;SDS011;24016;52.102;11.584;2023-05-07T00:39:33;15.52;;;11.93;;
38208;SDS011;24016;52.102;11.584;2023-05-07T00:41:59;12.73;;;11.13;;
38208;SDS011;24016;52.102;11.584;2023-05-07T00:44:25;14.13;;;11.07;;
38208;SDS011;24016;52.102;11.584;2023-05-07T00:46:51;14.75;;;11.68;;
38208;SDS011;24016;52.102;11.584;2023-05-07T00:49:18;12.43;;;9.77;;
38208;SDS011;24016;52.102;11.584;2023-05-07T00:51:44;13.13;;;10.23;;
38208;SDS011;24016;52.102;11.584;2023-05-07T00:54:10;10.75;;;9.75;;
38208;SDS011;24016;52.102;11.584;2023-05-07T00:56:36;9.98;;;8.48;;
38208;SDS011;24016;52.102;11.584;2023-05-07T00:59:04;9.45;;;8.45;;
38208;SDS011;24016;52.102;11.584;2023-05-07T01:01:30;9.55;;;8.55;;
38208;SDS011;24016;52.102;11.584;2023-05-07T01:03:56;9.48;;;8.57;;
38208;SDS011;24016;52.102;11.584;2023-05-07T01:06:22;8.75;;;7.90;;
38208;SDS011;24016;52.102;11.584;2023-05-07T01:08:49;8.68;;;7.80;;
38208;SDS011;24016;52.102;11.584;2023-05-07T01:11:17;9.00;;;8.10;;
38208;SDS011;24016;52.102;11.584;2023-05-07T01:13:44;8.98;;;7.85;;
38208;SDS011;24016;52.102;11.584;2023-05-07T01:16:10;8.30;;;7.50;;
38208;SDS011;24016;52.102;11.584;2023-05-07T01:18:36;8.75;;;7.85;;
38208;SDS011;24016;52.102;11.584;2023-05-07T01:21:01;7.97;;;7.15;;
38208;SDS011;24016;52.102;11.584;2023-05-07T01:23:29;8.02;;;6.97;;
38208;SDS011;24016;52.102;11.584;2023-05-07T01:25:55;9.40;;;7.20;;
38208;SDS011;24016;52.102;11.584;2023-05-07T01:28:21;7.57;;;6.78;;
38208;SDS011;24016;52.102;11.584;2023-05-07T01:33:22;8.80;;;7.25;;
38208;SDS011;24016;52.102;11.584;2023-05-07T01:35:52;8.13;;;7.07;;
38208;SDS011;24016;52.102;11.584;2023-05-07T01:38:19;8.32;;;7.43;;
38208;SDS011;24016;52.102;11.584;2023-05-07T01:40:47;7.82;;;7.03;;
38208;SDS011;24016;52.102;11.584;2023-05-07T01:43:12;9.27;;;8.15;;
38208;SDS011;24016;52.102;11.584;2023-05-07T01:45:38;9.23;;;8.27;;
38208;SDS011;24016;52.102;11.584;2023-05-07T01:48:05;7.82;;;7.05;;
38208;SDS011;24016;52.102;11.584;2023-05-07T01:50:32;8.50;;;7.60;;
38208;SDS011;24016;52.102;11.584;2023-05-07T01:52:58;7.78;;;6.88;;
38208;SDS011;24016;52.102;11.584;2023-05-07T01:55:24;7.63;;;6.63;;
38208;SDS011;24016;52.102;11.584;2023-05-07T01:57:50;8.07;;;7.25;;
38208;SDS011;24016;52.102;11.584;2023-05-07T02:00:15;8.60;;;7.28;;
38208;SDS011;24016;52.102;11.584;2023-05-07T02:02:42;8.73;;;7.15;;
38208;SDS011;24016;52.102;11.584;2023-05-07T02:05:08;8.05;;;7.13;;
38208;SDS011;24016;52.102;11.584;2023-05-07T02:07:33;8.73;;;7.60;;
38208;SDS011;24016;52.102;11.584;2023-05-07T02:09:59;7.65;;;6.85;;
38208;SDS011;24016;52.102;11.584;2023-05-07T02:12:24;8.70;;;7.80;;
38208;SDS011;24016;52.102;11.584;2023-05-07T02:14:50;10.52;;;7.85;;
38208;SDS011;24016;52.102;11.584;2023-05-07T02:17:15;8.10;;;7.30;;
38208;SDS011;24016;52.102;11.584;2023-05-07T02:19:41;9.00;;;8.00;;
38208;SDS011;24016;52.102;11.584;2023-05-07T02:22:07;9.05;;;7.90;;
38208;SDS011;24016;52.102;11.584;2023-05-07T02:24:32;8.32;;;7.45;;
38208;SDS011;24016;52.102;11.584;2023-05-07T02:26:58;9.05;;;7.88;;
38208;SDS011;24016;52.102;11.584;2023-05-07T02:29:23;9.20;;;7.70;;
38208;SDS011;24016;52.102;11.584;2023-05-07T02:31:49;8.68;;;7.72;;
38208;SDS011;24016;52.102;11.584;2023-05-07T02:34:16;10.60;;;8.80;;
38208;SDS011;24016;52.102;11.584;2023-05-07T02:36:41;9.77;;;8.75;;
38208;SDS011;24016;52.102;11.584;2023-05-07T02:39:07;10.25;;;9.15;;
38208;SDS011;24016;52.102;11.584;2023-05-07T02:41:33;10.10;;;8.98;;
38208;SDS011;24016;52.102;11.584;2023-05-07T02:43:58;10.38;;;9.18;;
38208;SDS011;24016;52.102;11.584;2023-05-07T02:46:24;12.05;;;9.65;;
38208;SDS011;24016;52.102;11.584;2023-05-07T02:48:49;10.77;;;9.65;;
38208;SDS011;24016;52.102;11.584;2023-05-07T02:51:16;13.02;;;9.48;;
38208;SDS011;24016;52.102;11.584;2023-05-07T02:53:44;10.55;;;9.18;;
38208;SDS011;24016;52.102;11.584;2023-05-07T02:56:10;10.30;;;9.30;;
38208;SDS011;24016;52.102;11.584;2023-05-07T02:58:36;10.35;;;9.00;;
38208;SDS011;24016;52.102;11.584;2023-05-07T03:01:02;11.70;;;10.18;;
38208;SDS011;24016;52.102;11.584;2023-05-07T03:03:27;10.93;;;9.82;;
38208;SDS011;24016;52.102;11.584;2023-05-07T03:05:53;10.63;;;9.52;;
38208;SDS011;24016;52.102;11.584;2023-05-07T03:08:18;10.57;;;9.48;;
38208;SDS011;24016;52.102;11.584;2023-05-07T03:10:44;10.60;;;9.40;;
38208;SDS011;24016;52.102;11.584;2023-05-07T03:13:09;11.80;;;10.60;;
38208;SDS011;24016;52.102;11.584;2023-05-07T03:15:35;10.35;;;9.35;;
38208;SDS011;24016;52.102;11.584;2023-05-07T03:18:01;9.80;;;8.80;;
38208;SDS011;24016;52.102;11.584;2023-05-07T03:20:26;10.20;;;9.00;;
38208;SDS011;24016;52.102;11.584;2023-05-07T03:22:52;9.65;;;8.43;;
38208;SDS011;24016;52.102;11.584;2023-05-07T03:25:17;9.57;;;8.57;;
38208;SDS011;24016;52.102;11.584;2023-05-07T03:27:43;10.25;;;9.18;;
38208;SDS011;24016;52.102;11.584;2023-05-07T03:30:09;9.52;;;8.52;;
38208;SDS011;24016;52.102;11.584;2023-05-07T03:32:35;9.63;;;8.60;;
38208;SDS011;24016;52.102;11.584;2023-05-07T03:35:01;11.82;;;8.70;;
38208;SDS011;24016;52.102;11.584;2023-05-07T03:37:27;11.63;;;9.00;;
38208;SDS011;24016;52.102;11.584;2023-05-07T03:39:53;9.63;;;8.65;;
38208;SDS011;24016;52.102;11.584;2023-05-07T03:42:18;9.75;;;8.43;;
38208;SDS011;24016;52.102;11.584;2023-05-07T03:44:44;10.02;;;8.95;;
38208;SDS011;24016;52.102;11.584;2023-05-07T03:47:09;10.65;;;8.13;;
38208;SDS011;24016;52.102;11.584;2023-05-07T03:49:35;9.88;;;8.65;;
38208;SDS011;24016;52.102;11.584;2023-05-07T03:52:01;8.25;;;7.03;;
38208;SDS011;24016;52.102;11.584;2023-05-07T03:54:27;8.50;;;7.50;;
38208;SDS011;24016;52.102;11.584;2023-05-07T03:56:52;9.18;;;7.38;;
38208;SDS011;24016;52.102;11.584;2023-05-07T03:59:17;8.82;;;7.35;;
38208;SDS011;24016;52.102;11.584;2023-05-07T04:01:43;8.77;;;6.80;;
38208;SDS011;24016;52.102;11.584;2023-05-07T04:04:08;9.48;;;7.05;;
38208;SDS011;24016;52.102;11.584;2023-05-07T04:06:34;8.73;;;7.32;;
38208;SDS011;24016;52.102;11.584;2023-05-07T04:09:00;8.10;;;7.30;;
38208;SDS011;24016;52.102;11.584;2023-05-07T04:11:25;10.32;;;8.05;;
38208;SDS011;24016;52.102;11.584;2023-05-07T04:13:51;7.65;;;6.85;;
38208;SDS011;24016;52.102;11.584;2023-05-07T04:16:16;8.77;;;7.78;;
38208;SDS011;24016;52.102;11.584;2023-05-07T04:18:42;8.45;;;7.55;;
38208;SDS011;24016;52.102;11.584;2023-05-07T04:21:14;8.57;;;7.45;;
38208;SDS011;24016;52.102;11.584;2023-05-07T04:23:40;7.57;;;6.78;;
38208;SDS011;24016;52.102;11.584;2023-05-07T04:26:06;8.02;;;7.22;;
38208;SDS011;24016;52.102;11.584;2023-05-07T04:28:31;7.88;;;7.00;;
38208;SDS011;24016;52.102;11.584;2023-05-07T04:30:57;7.53;;;6.80;;
38208;SDS011;24016;52.102;11.584;2023-05-07T04:33:23;7.55;;;6.70;;
38208;SDS011;24016;52.102;11.584;2023-05-07T04:35:48;8.30;;;7.50;;
38208;SDS011;24016;52.102;11.584;2023-05-07T04:38:14;10.68;;;7.80;;
38208;SDS011;24016;52.102;11.584;2023-05-07T04:40:40;8.60;;;7.70;;
38208;SDS011;24016;52.102;11.584;2023-05-07T04:43:06;9.45;;;8.05;;
38208;SDS011;24016;52.102;11.584;2023-05-07T04:45:32;8.90;;;7.65;;
38208;SDS011;24016;52.102;11.584;2023-05-07T04:47:57;9.90;;;7.70;;
38208;SDS011;24016;52.102;11.584;2023-05-07T04:50:23;8.85;;;7.63;;
38208;SDS011;24016;52.102;11.584;2023-05-07T04:52:49;9.25;;;7.85;;
38208;SDS011;24016;52.102;11.584;2023-05-07T04:55:15;9.63;;;8.40;;
38208;SDS011;24016;52.102;11.584;2023-05-07T04:57:40;10.43;;;8.43;;
38208;SDS011;24016;52.102;11.584;2023-05-07T05:00:06;9.85;;;8.23;;
38208;SDS011;24016;52.102;11.584;2023-05-07T05:02:33;11.43;;;9.30;;
38208;SDS011;24016;52.102;11.584;2023-05-07T05:04:59;11.98;;;9.48;;
38208;SDS011;24016;52.102;11.584;2023-05-07T05:07:27;10.73;;;8.82;;
38208;SDS011;24016;52.102;11.584;2023-05-07T05:09:53;13.10;;;9.27;;
38208;SDS011;24016;52.102;11.584;2023-05-07T05:12:18;9.23;;;8.18;;
38208;SDS011;24016;52.102;11.584;2023-05-07T05:14:44;10.88;;;7.57;;
38208;SDS011;24016;52.102;11.584;2023-05-07T05:17:09;8.73;;;7.65;;
38208;SDS011;24016;52.102;11.584;2023-05-07T05:19:35;8.48;;;7.40;;
38208;SDS011;24016;52.102;11.584;2023-05-07T05:22:01;9.15;;;7.32;;
38208;SDS011;24016;52.102;11.584;2023-05-07T05:24:28;8.25;;;6.53;;
38208;SDS011;24016;52.102;11.584;2023-05-07T05:26:54;8.40;;;6.68;;
38208;SDS011;24016;52.102;11.584;2023-05-07T05:29:20;7.32;;;5.70;;
38208;SDS011;24016;52.102;11.584;2023-05-07T05:31:45;8.52;;;5.60;;
38208;SDS011;24016;52.102;11.584;2023-05-07T05:34:11;7.28;;;5.47;;
38208;SDS011;24016;52.102;11.584;2023-05-07T05:36:36;6.55;;;5.68;;
38208;SDS011;24016;52.102;11.584;2023-05-07T05:39:02;6.78;;;5.85;;
38208;SDS011;24016;52.102;11.584;2023-05-07T05:41:28;6.22;;;5.10;;
38208;SDS011;24016;52.102;11.584;2023-05-07T05:43:53;7.18;;;5.38;;
38208;SDS011;24016;52.102;11.584;2023-05-07T05:46:19;6.25;;;5.40;;
38208;SDS011;24016;52.102;11.584;2023-05-07T05:48:44;6.18;;;4.90;;
38208;SDS011;24016;52.102;11.584;2023-05-07T05:51:10;7.60;;;5.80;;
38208;SDS011;24016;52.102;11.584;2023-05-07T05:53:35;6.22;;;5.63;;
38208;SDS011;24016;52.102;11.584;2023-05-07T05:56:01;6.72;;;5.72;;
38208;SDS011;24016;52.102;11.584;2023-05-07T05:58:27;7.53;;;5.95;;
38208;SDS011;24016;52.102;11.584;2023-05-07T06:00:53;5.88;;;5.32;;
38208;SDS011;24016;52.102;11.584;2023-05-07T06:03:18;7.72;;;5.55;;
38208;SDS011;24016;52.102;11.584;2023-05-07T06:05:44;7.43;;;5.68;;
38208;SDS011;24016;52.102;11.584;2023-05-07T06:08:10;6.57;;;5.78;;
38208;SDS011;24016;52.102;11.584;2023-05-07T06:10:36;6.85;;;5.60;;
38208;SDS011;24016;52.102;11.584;2023-05-07T06:13:02;6.18;;;5.57;;
38208;SDS011;24016;52.102;11.584;2023-05-07T06:15:27;7.65;;;5.60;;
38208;SDS011;24016;52.102;11.584;2023-05-07T06:17:53;6.00;;;5.40;;
38208;SDS011;24016;52.102;11.584;2023-05-07T06:20:20;6.10;;;5.40;;
38208;SDS011;24016;52.102;11.584;2023-05-07T06:22:46;8.18;;;5.72;;
38208;SDS011;24016;52.102;11.584;2023-05-07T06:25:11;7.35;;;5.03;;
38208;SDS011;24016;52.102;11.584;2023-05-07T06:27:37;6.60;;;5.18;;
38208;SDS011;24016;52.102;11.584;2023-05-07T06:30:04;6.35;;;5.50;;
38208;SDS011;24016;52.102;11.584;2023-05-07T06:32:30;7.28;;;5.20;;
38208;SDS011;24016;52.102;11.584;2023-05-07T06:34:56;5.95;;;5.20;;
38208;SDS011;24016;52.102;11.584;2023-05-07T06:37:21;8.52;;;5.07;;
38208;SDS011;24016;52.102;11.584;2023-05-07T06:39:47;5.90;;;5.30;;
38208;SDS011;24016;52.102;11.584;2023-05-07T06:42:12;5.85;;;5.15;;
38208;SDS011;24016;52.102;11.584;2023-05-07T06:44:38;6.43;;;5.60;;
38208;SDS011;24016;52.102;11.584;2023-05-07T06:47:03;6.93;;;5.70;;
38208;SDS011;24016;52.102;11.584;2023-05-07T06:49:30;6.65;;;5.85;;
38208;SDS011;24016;52.102;11.584;2023-05-07T06:51:56;7.18;;;5.80;;
38208;SDS011;24016;52.102;11.584;2023-05-07T06:54:22;6.85;;;5.90;;
38208;SDS011;24016;52.102;11.584;2023-05-07T06:56:47;9.50;;;6.30;;
38208;SDS011;24016;52.102;11.584;2023-05-07T06:59:13;7.47;;;6.45;;
38208;SDS011;24016;52.102;11.584;2023-05-07T07:01:38;8.52;;;6.20;;
38208;SDS011;24016;52.102;11.584;2023-05-07T07:04:04;7.32;;;6.43;;
38208;SDS011;24016;52.102;11.584;2023-05-07T07:06:29;9.30;;;6.97;;
38208;SDS011;24016;52.102;11.584;2023-05-07T07:08:56;7.63;;;6.88;;
38208;SDS011;24016;52.102;11.584;2023-05-07T07:11:22;7.82;;;7.03;;
38208;SDS011;24016;52.102;11.584;2023-05-07T07:13:48;8.75;;;7.90;;
38208;SDS011;24016;52.102;11.584;2023-05-07T07:16:13;9.18;;;7.10;;
38208;SDS011;24016;52.102;11.584;2023-05-07T07:18:39;7.78;;;6.97;;
38208;SDS011;24016;52.102;11.584;2023-05-07T07:21:04;8.88;;;7.97;;
38208;SDS011;24016;52.102;11.584;2023-05-07T07:23:30;8.93;;;7.57;;
38208;SDS011;24016;52.102;11.584;2023-05-07T07:25:56;10.45;;;8.05;;
38208;SDS011;24016;52.102;11.584;2023-05-07T07:28:21;9.43;;;8.00;;
38208;SDS011;24016;52.102;11.584;2023-05-07T07:30:47;8.02;;;7.22;;
38208;SDS011;24016;52.102;11.584;2023-05-07T07:33:12;8.77;;;7.88;;
38208;SDS011;24016;52.102;11.584;2023-05-07T07:35:39;9.55;;;8.30;;
38208;SDS011;24016;52.102;11.584;2023-05-07T07:38:04;8.95;;;7.78;;
38208;SDS011;24016;52.102;11.584;2023-05-07T07:40:30;9.35;;;7.32;;
38208;SDS011;24016;52.102;11.584;2023-05-07T07:42:56;7.70;;;6.85;;
38208;SDS011;24016;52.102;11.584;2023-05-07T07:45:21;7.70;;;6.78;;
38208;SDS011;24016;52.102;11.584;2023-05-07T07:47:47;7.70;;;6.85;;
38208;SDS011;24016;52.102;11.584;2023-05-07T07:50:13;9.85;;;7.38;;
38208;SDS011;24016;52.102;11.584;2023-05-07T07:52:38;9.35;;;7.63;;
38208;SDS011;24016;52.102;11.584;2023-05-07T07:55:04;8.80;;;7.90;;
38208;SDS011;24016;52.102;11.584;2023-05-07T07:57:30;8.25;;;7.45;;
38208;SDS011;24016;52.102;11.584;2023-05-07T07:59:56;9.63;;;7.50;;
38208;SDS011;24016;52.102;11.584;2023-05-07T08:02:21;8.65;;;7.50;;
38208;SDS011;24016;52.102;11.584;2023-05-07T08:04:47;9.98;;;7.35;;
38208;SDS011;24016;52.102;11.584;2023-05-07T08:07:12;9.15;;;7.50;;
38208;SDS011;24016;52.102;11.584;2023-05-07T08:09:38;7.80;;;7.00;;
38208;SDS011;24016;52.102;11.584;2023-05-07T08:12:05;8.90;;;7.50;;
38208;SDS011;24016;52.102;11.584;2023-05-07T08:14:31;8.73;;;6.78;;
38208;SDS011;24016;52.102;11.584;2023-05-07T08:16:56;7.60;;;6.28;;
38208;SDS011;24016;52.102;11.584;2023-05-07T08:19:22;7.60;;;6.75;;
38208;SDS011;24016;52.102;11.584;2023-05-07T08:21:48;7.07;;;5.95;;
38208;SDS011;24016;52.102;11.584;2023-05-07T08:24:14;8.25;;;6.18;;
38208;SDS011;24016;52.102;11.584;2023-05-07T08:26:40;7.15;;;6.18;;
38208;SDS011;24016;52.102;11.584;2023-05-07T08:29:05;7.22;;;6.00;;
38208;SDS011;24016;52.102;11.584;2023-05-07T08:31:31;8.50;;;6.30;;
38208;SDS011;24016;52.102;11.584;2023-05-07T08:33:57;7.90;;;6.25;;
38208;SDS011;24016;52.102;11.584;2023-05-07T08:36:23;7.47;;;6.15;;
38208;SDS011;24016;52.102;11.584;2023-05-07T08:38:50;6.65;;;5.95;;
38208;SDS011;24016;52.102;11.584;2023-05-07T08:41:16;7.72;;;6.22;;
38208;SDS011;24016;52.102;11.584;2023-05-07T08:43:41;6.88;;;6.00;;
38208;SDS011;24016;52.102;11.584;2023-05-07T08:46:10;9.23;;;6.55;;
38208;SDS011;24016;52.102;11.584;2023-05-07T08:48:41;8.30;;;6.50;;
38208;SDS011;24016;52.102;11.584;2023-05-07T08:51:08;10.63;;;6.40;;
38208;SDS011;24016;52.102;11.584;2023-05-07T08:53:37;9.27;;;7.25;;
38208;SDS011;24016;52.102;11.584;2023-05-07T08:56:05;8.65;;;7.22;;
38208;SDS011;24016;52.102;11.584;2023-05-07T08:58:33;10.10;;;7.53;;
38208;SDS011;24016;52.102;11.584;2023-05-07T09:00:59;7.97;;;6.82;;
38208;SDS011;24016;52.102;11.584;2023-05-07T09:05:56;7.95;;;7.00;;
38208;SDS011;24016;52.102;11.584;2023-05-07T09:08:24;8.32;;;7.07;;
38208;SDS011;24016;52.102;11.584;2023-05-07T09:10:51;9.02;;;7.65;;
38208;SDS011;24016;52.102;11.584;2023-05-07T09:13:17;7.32;;;6.30;;
38208;SDS011;24016;52.102;11.584;2023-05-07T09:15:43;7.65;;;6.47;;
38208;SDS011;24016;52.102;11.584;2023-05-07T09:18:09;7.32;;;6.53;;
38208;SDS011;24016;52.102;11.584;2023-05-07T09:20:36;8.05;;;6.32;;
38208;SDS011;24016;52.102;11.584;2023-05-07T09:23:01;8.82;;;7.28;;
38208;SDS011;24016;52.102;11.584;2023-05-07T09:25:34;9.60;;;7.20;;
38208;SDS011;24016;52.102;11.584;2023-05-07T09:28:01;9.55;;;7.30;;
38208;SDS011;24016;52.102;11.584;2023-05-07T09:30:28;10.07;;;7.53;;
38208;SDS011;24016;52.102;11.584;2023-05-07T09:32:55;9.50;;;7.70;;
38208;SDS011;24016;52.102;11.584;2023-05-07T09:35:21;9.02;;;7.70;;
38208;SDS011;24016;52.102;11.584;2023-05-07T09:37:49;12.63;;;11.43;;
38208;SDS011;24016;52.102;11.584;2023-05-07T09:40:21;12.02;;;10.00;;
38208;SDS011;24016;52.102;11.584;2023-05-07T09:42:48;8.27;;;6.75;;
38208;SDS011;24016;52.102;11.584;2023-05-07T09:45:14;8.77;;;6.70;;
38208;SDS011;24016;52.102;11.584;2023-05-07T09:47:40;9.52;;;6.80;;
38208;SDS011;24016;52.102;11.584;2023-05-07T09:50:10;7.88;;;7.07;;
38208;SDS011;24016;52.102;11.584;2023-05-07T09:52:38;8.30;;;6.80;;
38208;SDS011;24016;52.102;11.584;2023-05-07T09:55:05;8.40;;;6.38;;
38208;SDS011;24016;52.102;11.584;2023-05-07T09:57:32;7.53;;;6.47;;
38208;SDS011;24016;52.102;11.584;2023-05-07T10:00:01;9.50;;;6.60;;
38208;SDS011;24016;52.102;11.584;2023-05-07T10:02:30;6.55;;;5.85;;
38208;SDS011;24016;52.102;11.584;2023-05-07T10:05:00;8.30;;;6.50;;
38208;SDS011;24016;52.102;11.584;2023-05-07T10:07:26;7.07;;;5.43;;
38208;SDS011;24016;52.102;11.584;2023-05-07T10:09:53;7.75;;;6.00;;
38208;SDS011;24016;52.102;11.584;2023-05-07T10:12:18;6.90;;;5.75;;
38208;SDS011;24016;52.102;11.584;2023-05-07T10:14:45;7.38;;;5.82;;
38208;SDS011;24016;52.102;11.584;2023-05-07T10:17:13;8.98;;;6.70;;
38208;SDS011;24016;52.102;11.584;2023-05-07T10:19:40;7.32;;;5.90;;
38208;SDS011;24016;52.102;11.584;2023-05-07T10:22:07;8.27;;;6.13;;
38208;SDS011;24016;52.102;11.584;2023-05-07T10:24:34;8.00;;;6.28;;
38208;SDS011;24016;52.102;11.584;2023-05-07T10:27:01;7.63;;;5.45;;
38208;SDS011;24016;52.102;11.584;2023-05-07T10:32:30;7.60;;;5.75;;
38208;SDS011;24016;52.102;11.584;2023-05-07T10:35:04;7.03;;;5.20;;
38208;SDS011;24016;52.102;11.584;2023-05-07T10:37:35;7.55;;;5.35;;
38208;SDS011;24016;52.102;11.584;2023-05-07T10:40:01;6.70;;;5.20;;
38208;SDS011;24016;52.102;11.584;2023-05-07T10:42:27;5.07;;;4.57;;
38208;SDS011;24016;52.102;11.584;2023-05-07T10:44:53;6.38;;;5.20;;
38208;SDS011;24016;52.102;11.584;2023-05-07T10:47:18;5.35;;;4.38;;
38208;SDS011;24016;52.102;11.584;2023-05-07T10:57:46;7.95;;;5.60;;
38208;SDS011;24016;52.102;11.584;2023-05-07T11:05:25;7.50;;;5.93;;
38208;SDS011;24016;52.102;11.584;2023-05-07T11:07:54;7.05;;;5.53;;
38208;SDS011;24016;52.102;11.584;2023-05-07T11:10:21;7.10;;;5.65;;
38208;SDS011;24016;52.102;11.584;2023-05-07T11:12:47;6.93;;;4.90;;
38208;SDS011;24016;52.102;11.584;2023-05-07T11:15:13;5.80;;;4.97;;
38208;SDS011;24016;52.102;11.584;2023-05-07T11:17:55;7.35;;;5.30;;
38208;SDS011;24016;52.102;11.584;2023-05-07T11:20:43;6.07;;;5.47;;
38208;SDS011;24016;52.102;11.584;2023-05-07T11:26:03;8.35;;;5.78;;
38208;SDS011;24016;52.102;11.584;2023-05-07T11:28:30;6.30;;;5.53;;
38208;SDS011;24016;52.102;11.584;2023-05-07T11:31:01;7.68;;;5.03;;
38208;SDS011;24016;52.102;11.584;2023-05-07T11:33:27;7.15;;;5.85;;
38208;SDS011;24016;52.102;11.584;2023-05-07T11:35:53;6.10;;;5.45;;
38208;SDS011;24016;52.102;11.584;2023-05-07T11:38:19;8.50;;;6.15;;
38208;SDS011;24016;52.102;11.584;2023-05-07T11:40:49;7.10;;;6.00;;
38208;SDS011;24016;52.102;11.584;2023-05-07T11:43:15;7.17;;;6.17;;
38208;SDS011;24016;52.102;11.584;2023-05-07T11:45:41;6.75;;;5.57;;
38208;SDS011;24016;52.102;11.584;2023-05-07T11:48:07;6.95;;;5.57;;
38208;SDS011;24016;52.102;11.584;2023-05-07T11:50:32;7.68;;;5.60;;
38208;SDS011;24016;52.102;11.584;2023-05-07T11:52:58;7.20;;;4.60;;
38208;SDS011;24016;52.102;11.584;2023-05-07T11:55:24;6.78;;;5.70;;
38208;SDS011;24016;52.102;11.584;2023-05-07T11:57:50;6.32;;;5.20;;
38208;SDS011;24016;52.102;11.584;2023-05-07T12:00:16;6.20;;;5.60;;
38208;SDS011;24016;52.102;11.584;2023-05-07T12:02:43;8.15;;;5.63;;
38208;SDS011;24016;52.102;11.584;2023-05-07T12:05:13;7.15;;;5.30;;
38208;SDS011;24016;52.102;11.584;2023-05-07T12:07:38;6.80;;;5.28;;
38208;SDS011;24016;52.102;11.584;2023-05-07T12:10:04;7.28;;;5.32;;
38208;SDS011;24016;52.102;11.584;2023-05-07T12:12:31;7.40;;;5.38;;
38208;SDS011;24016;52.102;11.584;2023-05-07T12:15:03;6.18;;;4.78;;
38208;SDS011;24016;52.102;11.584;2023-05-07T12:17:29;6.90;;;4.72;;
38208;SDS011;24016;52.102;11.584;2023-05-07T12:19:55;7.65;;;4.78;;
38208;SDS011;24016;52.102;11.584;2023-05-07T12:22:21;6.22;;;5.03;;
38208;SDS011;24016;52.102;11.584;2023-05-07T12:24:48;7.10;;;5.03;;
38208;SDS011;24016;52.102;11.584;2023-05-07T12:27:15;6.78;;;5.03;;
38208;SDS011;24016;52.102;11.584;2023-05-07T12:29:47;5.50;;;4.70;;
38208;SDS011;24016;52.102;11.584;2023-05-07T12:32:15;5.22;;;4.55;;
38208;SDS011;24016;52.102;11.584;2023-05-07T12:34:42;5.63;;;4.97;;
38208;SDS011;24016;52.102;11.584;2023-05-07T12:37:08;5.75;;;4.70;;
38208;SDS011;24016;52.102;11.584;2023-05-07T12:39:34;5.60;;;4.88;;
38208;SDS011;24016;52.102;11.584;2023-05-07T12:42:00;5.55;;;4.50;;
38208;SDS011;24016;52.102;11.584;2023-05-07T12:44:30;5.88;;;4.55;;
38208;SDS011;24016;52.102;11.584;2023-05-07T12:47:02;6.55;;;4.90;;
38208;SDS011;24016;52.102;11.584;2023-05-07T12:49:27;5.88;;;3.92;;
38208;SDS011;24016;52.102;11.584;2023-05-07T12:51:53;5.45;;;4.82;;
38208;SDS011;24016;52.102;11.584;2023-05-07T12:54:32;6.15;;;4.90;;
38208;SDS011;24016;52.102;11.584;2023-05-07T12:57:00;5.80;;;4.65;;
38208;SDS011;24016;52.102;11.584;2023-05-07T12:59:45;4.90;;;4.40;;
38208;SDS011;24016;52.102;11.584;2023-05-07T13:02:11;5.65;;;4.43;;
38208;SDS011;24016;52.102;11.584;2023-05-07T13:04:37;6.40;;;4.55;;
38208;SDS011;24016;52.102;11.584;2023-05-07T13:07:02;6.78;;;4.90;;
38208;SDS011;24016;52.102;11.584;2023-05-07T13:09:28;4.80;;;4.30;;
38208;SDS011;24016;52.102;11.584;2023-05-07T13:11:54;5.03;;;4.53;;
38208;SDS011;24016;52.102;11.584;2023-05-07T13:14:20;5.50;;;4.68;;
38208;SDS011;24016;52.102;11.584;2023-05-07T13:16:46;5.15;;;4.60;;
38208;SDS011;24016;52.102;11.584;2023-05-07T13:19:12;5.63;;;4.97;;
38208;SDS011;24016;52.102;11.584;2023-05-07T13:21:37;5.07;;;4.57;;
38208;SDS011;24016;52.102;11.584;2023-05-07T13:24:03;7.68;;;5.32;;
38208;SDS011;24016;52.102;11.584;2023-05-07T13:26:29;5.53;;;4.95;;
38208;SDS011;24016;52.102;11.584;2023-05-07T13:28:55;5.78;;;4.90;;
38208;SDS011;24016;52.102;11.584;2023-05-07T13:31:21;7.18;;;5.43;;
38208;SDS011;24016;52.102;11.584;2023-05-07T13:33:47;6.13;;;5.00;;
38208;SDS011;24016;52.102;11.584;2023-05-07T13:36:12;6.43;;;5.72;;
38208;SDS011;24016;52.102;11.584;2023-05-07T13:38:41;6.93;;;4.82;;
38208;SDS011;24016;52.102;11.584;2023-05-07T13:41:07;6.15;;;5.40;;
38208;SDS011;24016;52.102;11.584;2023-05-07T13:43:32;7.25;;;5.45;;
38208;SDS011;24016;52.102;11.584;2023-05-07T13:45:58;6.15;;;5.55;;
38208;SDS011;24016;52.102;11.584;2023-05-07T13:48:24;6.88;;;5.75;;
38208;SDS011;24016;52.102;11.584;2023-05-07T13:50:50;6.30;;;5.15;;
38208;SDS011;24016;52.102;11.584;2023-05-07T13:53:16;6.28;;;5.60;;
38208;SDS011;24016;52.102;11.584;2023-05-07T13:55:43;5.25;;;4.75;;
38208;SDS011;24016;52.102;11.584;2023-05-07T13:58:12;7.13;;;5.47;;
38208;SDS011;24016;52.102;11.584;2023-05-07T14:00:37;5.72;;;5.13;;
38208;SDS011;24016;52.102;11.584;2023-05-07T14:03:04;5.95;;;5.10;;
38208;SDS011;24016;52.102;11.584;2023-05-07T14:05:30;6.20;;;4.88;;
38208;SDS011;24016;52.102;11.584;2023-05-07T14:07:58;5.72;;;4.78;;
38208;SDS011;24016;52.102;11.584;2023-05-07T14:10:24;5.72;;;5.20;;
38208;SDS011;24016;52.102;11.584;2023-05-07T14:12:50;5.13;;;4.55;;
38208;SDS011;24016;52.102;11.584;2023-05-07T14:15:15;5.85;;;4.50;;
38208;SDS011;24016;52.102;11.584;2023-05-07T14:17:41;5.85;;;4.72;;
38208;SDS011;24016;52.102;11.584;2023-05-07T14:20:07;5.43;;;4.20;;
38208;SDS011;24016;52.102;11.584;2023-05-07T14:22:33;6.13;;;4.10;;
38208;SDS011;24016;52.102;11.584;2023-05-07T14:24:59;5.15;;;4.25;;
38208;SDS011;24016;52.102;11.584;2023-05-07T14:27:24;5.88;;;4.22;;
38208;SDS011;24016;52.102;11.584;2023-05-07T14:29:50;4.93;;;3.95;;
38208;SDS011;24016;52.102;11.584;2023-05-07T14:32:19;4.90;;;4.00;;
38208;SDS011;24016;52.102;11.584;2023-05-07T14:34:45;4.57;;;3.83;;
38208;SDS011;24016;52.102;11.584;2023-05-07T14:37:11;5.57;;;4.15;;
38208;SDS011;24016;52.102;11.584;2023-05-07T14:39:37;5.13;;;4.03;;
38208;SDS011;24016;52.102;11.584;2023-05-07T14:42:02;4.72;;;3.72;;
38208;SDS011;24016;52.102;11.584;2023-05-07T14:44:28;4.03;;;2.95;;
38208;SDS011;24016;52.102;11.584;2023-05-07T14:46:54;6.43;;;3.40;;
38208;SDS011;24016;52.102;11.584;2023-05-07T14:49:20;5.93;;;3.47;;